createdAt,value
2023-07-06T00:00:15.695Z,97817.23
2023-07-06T00:03:04.106Z,97822.25
2023-07-06T00:05:30.741Z,97815.90
2023-07-06T00:07:57.344Z,97816.69
2023-07-06T00:10:24.737Z,97815.52
2023-07-06T00:12:51.464Z,97814.06
2023-07-06T00:15:18.826Z,97813.94
2023-07-06T00:17:45.448Z,97810.11
2023-07-06T00:20:13.825Z,97804.08
2023-07-06T00:22:40.463Z,97804.06
2023-07-06T00:25:08.208Z,97806.23
2023-07-06T00:27:34.820Z,97811.04
2023-07-06T00:30:19.012Z,97804.12
2023-07-06T00:32:48.415Z,97800.40
2023-07-06T00:35:16.115Z,97800.27
2023-07-06T00:37:42.773Z,97801.54
2023-07-06T00:40:14.033Z,97802.10
2023-07-06T00:42:46.023Z,97797.99
2023-07-06T00:45:13.330Z,97797.67
2023-07-06T00:47:48.171Z,97803.87
2023-07-06T00:50:21.982Z,97807.38
2023-07-06T00:52:52.757Z,97814.83
2023-07-06T00:55:26.110Z,97816.60
2023-07-06T00:57:58.620Z,97818.83
2023-07-06T01:00:25.287Z,97821.63
2023-07-06T01:02:57.356Z,97825.84
2023-07-06T01:05:27.180Z,97822.74
2023-07-06T01:07:56.534Z,97817.23
2023-07-06T01:10:24.398Z,97824.50
2023-07-06T01:12:52.066Z,97821.46
2023-07-06T01:15:18.928Z,97814.85
2023-07-06T01:18:09.484Z,97809.02
2023-07-06T01:20:45.149Z,97804.62
2023-07-06T01:23:33.341Z,97804.96
2023-07-06T01:26:20.775Z,97805.83
2023-07-06T01:29:10.620Z,97807.84
2023-07-06T01:32:02.494Z,97812.38
2023-07-06T01:34:31.833Z,97817.58
2023-07-06T01:37:19.410Z,97814.61
2023-07-06T01:39:46.359Z,97820.42
2023-07-06T01:42:13.227Z,97827.73
2023-07-06T01:44:42.681Z,97827.81
2023-07-06T01:47:10.801Z,97826.50
2023-07-06T01:49:38.868Z,97825.66
2023-07-06T01:52:17.171Z,97825.71
2023-07-06T01:54:50.812Z,97824.63
2023-07-06T01:57:25.904Z,97824.70
2023-07-06T01:59:58.099Z,97826.55
2023-07-06T02:02:25.270Z,97833.27
2023-07-06T02:04:53.498Z,97834.10
2023-07-06T02:07:20.778Z,97832.95
2023-07-06T02:09:51.900Z,97829.39
2023-07-06T02:12:19.361Z,97832.08
2023-07-06T02:14:48.742Z,97834.61
2023-07-06T02:17:18.865Z,97843.05
2023-07-06T02:19:45.588Z,97838.12
2023-07-06T02:22:12.339Z,97839.63
2023-07-06T02:24:38.916Z,97840.44
2023-07-06T02:27:06.338Z,97836.41
2023-07-06T02:29:33.909Z,97837.58
2023-07-06T02:32:01.153Z,97841.52
2023-07-06T02:34:28.707Z,97840.98
2023-07-06T02:36:56.118Z,97841.95
2023-07-06T02:39:24.831Z,97845.65
2023-07-06T02:41:55.110Z,97849.01
2023-07-06T02:44:22.977Z,97844.42
2023-07-06T02:46:50.521Z,97845.50
2023-07-06T02:49:18.180Z,97847.41
2023-07-06T02:51:46.957Z,97847.54
2023-07-06T02:54:15.907Z,97848.13
2023-07-06T02:56:43.282Z,97849.96
2023-07-06T02:59:11.225Z,97852.86
2023-07-06T03:01:38.510Z,97852.80
2023-07-06T03:04:11.828Z,97855.13
2023-07-06T03:06:39.071Z,97852.94
2023-07-06T03:09:08.157Z,97857.48
2023-07-06T03:11:35.603Z,97859.03
2023-07-06T03:14:03.458Z,97860.32
2023-07-06T03:16:40.805Z,97860.02
2023-07-06T03:19:09.619Z,97866.95
2023-07-06T03:21:40.559Z,97868.36
2023-07-06T03:24:08.641Z,97866.54
2023-07-06T03:26:37.212Z,97866.09
2023-07-06T03:29:05.387Z,97872.69
2023-07-06T03:31:33.267Z,97872.16
2023-07-06T03:34:01.275Z,97874.84
2023-07-06T03:36:28.004Z,97877.72
2023-07-06T03:38:55.124Z,97882.96
2023-07-06T03:41:21.713Z,97883.78
2023-07-06T03:43:48.412Z,97895.05
2023-07-06T03:46:15.067Z,97904.02
2023-07-06T03:48:45.084Z,97910.17
2023-07-06T03:51:13.752Z,97900.40
2023-07-06T03:53:40.372Z,97894.05
2023-07-06T03:56:08.064Z,97889.69
2023-07-06T03:58:34.903Z,97891.70
2023-07-06T04:01:01.505Z,97898.05
2023-07-06T04:03:28.287Z,97898.13
2023-07-06T04:05:55.119Z,97899.67
2023-07-06T04:08:23.176Z,97903.75
2023-07-06T04:10:50.491Z,97903.84
2023-07-06T04:13:17.657Z,97910.98
2023-07-06T04:15:47.459Z,97920.21
2023-07-06T04:18:18.067Z,97925.61
2023-07-06T04:20:45.075Z,97932.61
2023-07-06T04:23:11.783Z,97938.68
2023-07-06T04:25:38.873Z,97944.94
2023-07-06T04:28:07.290Z,97942.19
2023-07-06T04:30:36.294Z,97946.80
2023-07-06T04:33:05.254Z,97948.04
2023-07-06T04:35:32.259Z,97944.55
2023-07-06T04:38:00.272Z,97947.39
2023-07-06T04:40:27.235Z,97940.94
2023-07-06T04:42:55.187Z,97942.67
2023-07-06T04:45:25.094Z,97945.84
2023-07-06T04:47:53.373Z,97948.02
2023-07-06T04:50:23.200Z,97950.98
2023-07-06T04:52:56.066Z,97958.71
2023-07-06T04:55:25.315Z,97958.89
2023-07-06T04:57:56.643Z,97967.69
2023-07-06T05:00:30.081Z,97975.39
2023-07-06T05:02:59.648Z,97982.13
2023-07-06T05:05:29.597Z,97991.24
2023-07-06T05:07:56.812Z,98004.36
2023-07-06T05:10:24.125Z,98013.75
2023-07-06T05:12:52.592Z,98013.64
2023-07-06T05:15:20.076Z,98005.34
2023-07-06T05:17:46.749Z,98004.80
2023-07-06T05:20:15.925Z,98004.23
2023-07-06T05:22:48.637Z,98005.70
2023-07-06T05:25:17.647Z,98008.95
2023-07-06T05:27:45.328Z,98002.73
2023-07-06T05:30:12.396Z,97999.91
2023-07-06T05:32:39.910Z,97993.60
2023-07-06T05:35:07.232Z,98000.16
2023-07-06T05:37:36.215Z,98005.17
2023-07-06T05:40:06.788Z,98010.09
2023-07-06T05:42:33.505Z,98016.68
2023-07-06T05:45:00.405Z,98016.23
2023-07-06T05:47:28.078Z,98023.71
2023-07-06T05:49:55.292Z,98032.57
2023-07-06T05:52:22.603Z,98039.94
2023-07-06T05:54:49.335Z,98040.86
2023-07-06T05:57:19.671Z,98035.91
2023-07-06T05:59:47.373Z,98038.92
2023-07-06T06:02:19.424Z,98039.61
2023-07-06T06:04:48.613Z,98039.50
2023-07-06T06:07:15.771Z,98039.39
2023-07-06T06:09:42.514Z,98038.15
2023-07-06T06:12:11.797Z,98043.42
2023-07-06T06:14:38.499Z,98047.37
2023-07-06T06:17:05.525Z,98050.30
2023-07-06T06:19:38.036Z,98053.55
2023-07-06T06:22:09.718Z,98053.60
2023-07-06T06:24:36.460Z,98055.69
2023-07-06T06:27:04.927Z,98060.14
2023-07-06T06:29:33.082Z,98064.44
2023-07-06T06:32:03.598Z,98066.16
2023-07-06T06:34:30.285Z,98071.75
2023-07-06T06:36:56.898Z,98073.38
2023-07-06T06:39:23.660Z,98072.92
2023-07-06T06:41:50.301Z,98078.55
2023-07-06T06:44:17.440Z,98084.80
2023-07-06T06:46:45.868Z,98091.55
2023-07-06T06:49:12.960Z,98092.00
2023-07-06T06:51:39.918Z,98096.20
2023-07-06T06:54:06.687Z,98100.12
2023-07-06T06:56:33.661Z,98093.17
2023-07-06T06:59:00.287Z,98094.18
2023-07-06T07:01:26.998Z,98101.85
2023-07-06T07:03:53.727Z,98097.89
2023-07-06T07:06:22.797Z,98096.22
2023-07-06T07:08:54.459Z,98100.15
2023-07-06T07:11:23.685Z,98099.39
2023-07-06T07:13:53.301Z,98098.51
2023-07-06T07:16:20.970Z,98099.40
2023-07-06T07:18:48.706Z,98107.13
2023-07-06T07:21:16.329Z,98108.40
2023-07-06T07:23:45.332Z,98108.73
2023-07-06T07:26:17.613Z,98111.73
2023-07-06T07:28:44.649Z,98113.66
2023-07-06T07:31:14.153Z,98111.11
2023-07-06T07:33:44.752Z,98114.27
2023-07-06T07:36:13.558Z,98110.53
2023-07-06T07:38:40.659Z,98112.67
2023-07-06T07:41:08.393Z,98114.00
2023-07-06T07:43:37.241Z,98115.91
2023-07-06T07:46:06.296Z,98108.60
2023-07-06T07:48:38.960Z,98109.69
2023-07-06T07:51:08.666Z,98110.86
2023-07-06T07:53:40.165Z,98114.45
2023-07-06T07:56:08.705Z,98121.90
2023-07-06T07:58:37.574Z,98127.82
2023-07-06T08:01:06.715Z,98125.73
2023-07-06T08:03:36.374Z,98128.40
2023-07-06T08:06:08.994Z,98128.77
2023-07-06T08:08:37.722Z,98128.57
2023-07-06T08:11:09.568Z,98123.20
2023-07-06T08:13:37.342Z,98120.95
2023-07-06T08:16:05.426Z,98123.05
2023-07-06T08:18:32.982Z,98121.70
2023-07-06T08:21:35.249Z,98117.27
2023-07-06T08:23:51.181Z,98123.79
2023-07-06T08:26:18.408Z,98117.08
2023-07-06T08:28:46.690Z,98120.09
2023-07-06T08:31:18.121Z,98116.04
2023-07-06T08:33:48.445Z,98111.86
2023-07-06T08:36:16.741Z,98111.77
2023-07-06T08:38:44.191Z,98114.40
2023-07-06T08:41:31.844Z,98115.66
2023-07-06T08:44:00.316Z,98116.16
2023-07-06T08:46:31.268Z,98116.72
2023-07-06T08:48:58.501Z,98121.02
2023-07-06T08:51:35.597Z,98124.21
2023-07-06T08:54:12.240Z,98128.55
2023-07-06T08:56:38.996Z,98129.27
2023-07-06T08:59:15.407Z,98130.52
2023-07-06T09:01:43.094Z,98131.26
2023-07-06T09:04:20.107Z,98129.11
2023-07-06T09:06:54.557Z,98125.34
2023-07-06T09:09:21.486Z,98120.86
2023-07-06T09:11:51.278Z,98126.88
2023-07-06T09:14:21.594Z,98129.84
2023-07-06T09:16:55.997Z,98129.65
2023-07-06T09:19:24.835Z,98131.66
2023-07-06T09:21:58.941Z,98136.04
2023-07-06T09:24:28.043Z,98140.70
2023-07-06T09:27:00.879Z,98140.93
2023-07-06T09:29:33.932Z,98140.98
2023-07-06T09:32:12.517Z,98139.04
2023-07-06T09:34:45.576Z,98141.13
2023-07-06T09:37:13.966Z,98138.77
2023-07-06T09:39:42.101Z,98136.98
2023-07-06T09:42:14.771Z,98138.80
2023-07-06T09:44:42.076Z,98134.50
2023-07-06T09:47:12.821Z,98134.92
2023-07-06T09:49:48.150Z,98134.61
2023-07-06T09:52:17.012Z,98137.54
2023-07-06T09:55:03.272Z,98141.17
2023-07-06T09:57:35.350Z,98145.19
2023-07-06T10:00:04.202Z,98149.13
2023-07-06T10:02:46.879Z,98151.77
2023-07-06T10:05:39.665Z,98156.80
2023-07-06T10:08:22.496Z,98158.79
2023-07-06T10:10:59.732Z,98159.47
2023-07-06T10:13:32.164Z,98161.06
2023-07-06T10:16:15.860Z,98161.18
2023-07-06T10:18:53.403Z,98164.23
2023-07-06T10:21:38.426Z,98166.56
2023-07-06T10:24:30.843Z,98165.89
2023-07-06T10:27:03.884Z,98168.77
2023-07-06T10:29:42.201Z,98154.13
2023-07-06T10:32:14.038Z,98168.49
2023-07-06T10:35:15.629Z,98164.45
2023-07-06T10:37:43.410Z,98174.42
2023-07-06T10:40:31.369Z,98177.52
2023-07-06T10:43:13.629Z,98175.29
2023-07-06T10:45:44.532Z,98175.21
2023-07-06T10:48:26.378Z,98171.41
2023-07-06T10:51:06.987Z,98169.58
2023-07-06T10:53:40.450Z,98167.81
2023-07-06T10:56:17.758Z,98172.97
2023-07-06T10:58:56.577Z,98171.97
2023-07-06T11:01:31.506Z,98171.44
2023-07-06T11:03:59.945Z,98171.29
2023-07-06T11:06:41.833Z,98175.63
2023-07-06T11:09:14.652Z,98178.61
2023-07-06T11:11:53.644Z,98173.06
2023-07-06T11:14:33.815Z,98178.50
2023-07-06T11:17:20.712Z,98180.98
2023-07-06T11:19:54.255Z,98184.20
2023-07-06T11:22:24.892Z,98192.16
2023-07-06T11:24:58.609Z,98193.17
2023-07-06T11:27:43.879Z,98191.44
2023-07-06T11:30:19.549Z,98185.36
2023-07-06T11:33:10.937Z,98181.71
2023-07-06T11:36:00.997Z,98179.46
2023-07-06T11:38:34.643Z,98181.02
2023-07-06T11:41:13.327Z,98185.48
2023-07-06T11:43:49.890Z,98183.05
2023-07-06T11:46:48.787Z,98186.48
2023-07-06T11:49:26.527Z,98186.29
2023-07-06T11:51:53.266Z,98185.09
2023-07-06T11:54:39.429Z,98186.89
2023-07-06T11:57:25.391Z,98188.50
2023-07-06T12:00:15.331Z,98183.72
2023-07-06T12:03:12.272Z,98180.40
2023-07-06T12:05:52.068Z,98180.46
2023-07-06T12:08:31.274Z,98177.93
2023-07-06T12:11:04.152Z,98173.45
2023-07-06T12:13:37.584Z,98178.77
2023-07-06T12:16:15.589Z,98176.95
2023-07-06T12:18:45.645Z,98176.05
2023-07-06T12:21:30.555Z,98176.09
2023-07-06T12:24:01.892Z,98180.29
2023-07-06T12:26:29.975Z,98177.18
2023-07-06T12:28:58.149Z,98173.02
2023-07-06T12:31:26.387Z,98174.53
2023-07-06T12:33:55.726Z,98174.13
2023-07-06T12:36:26.547Z,98173.77
2023-07-06T12:38:56.078Z,98168.30
2023-07-06T12:41:23.244Z,98170.67
2023-07-06T12:43:50.804Z,98170.73
2023-07-06T12:46:24.503Z,98172.71
2023-07-06T12:48:54.081Z,98169.77
2023-07-06T12:51:25.439Z,98172.52
2023-07-06T12:53:55.245Z,98174.96
2023-07-06T12:56:24.460Z,98170.23
2023-07-06T12:58:58.229Z,98166.65
2023-07-06T13:01:37.772Z,98165.55
2023-07-06T13:04:09.981Z,98162.98
2023-07-06T13:06:55.335Z,98164.31
2023-07-06T13:09:30.383Z,98169.60
2023-07-06T13:12:00.784Z,98165.88
2023-07-06T13:14:35.511Z,98161.31
2023-07-06T13:17:13.458Z,98154.95
2023-07-06T13:19:40.689Z,98154.32
2023-07-06T13:22:10.252Z,98145.31
2023-07-06T13:24:40.651Z,98143.83
2023-07-06T13:27:16.242Z,98141.17
2023-07-06T13:29:44.274Z,98135.23
2023-07-06T13:32:19.125Z,98132.42
2023-07-06T13:34:50.035Z,98127.84
2023-07-06T13:37:24.225Z,98127.98
2023-07-06T13:39:51.867Z,98125.02
2023-07-06T13:42:22.148Z,98121.39
2023-07-06T13:44:51.833Z,98121.43
2023-07-06T13:47:20.106Z,98122.70
2023-07-06T13:49:52.661Z,98124.18
2023-07-06T13:52:20.911Z,98121.84
2023-07-06T13:54:47.480Z,98123.69
2023-07-06T13:57:14.101Z,98125.52
2023-07-06T13:59:40.727Z,98122.02
2023-07-06T14:02:14.271Z,98121.25
2023-07-06T14:04:42.717Z,98123.91
2023-07-06T14:07:10.060Z,98126.59
2023-07-06T14:09:36.631Z,98128.86
2023-07-06T14:12:05.818Z,98133.92
2023-07-06T14:14:32.455Z,98130.37
2023-07-06T14:16:59.374Z,98129.52
2023-07-06T14:19:25.922Z,98126.44
2023-07-06T14:21:52.527Z,98131.39
2023-07-06T14:24:21.961Z,98128.63
2023-07-06T14:26:48.590Z,98128.50
2023-07-06T14:29:15.210Z,98126.48
2023-07-06T14:31:41.922Z,98129.79
2023-07-06T14:34:08.546Z,98126.81
2023-07-06T14:36:35.443Z,98126.90
2023-07-06T14:39:02.019Z,98126.68
2023-07-06T14:41:29.533Z,98129.83
2023-07-06T14:43:56.193Z,98131.09
2023-07-06T14:46:23.022Z,98130.23
2023-07-06T14:48:50.615Z,98135.21
2023-07-06T14:51:18.939Z,98132.04
2023-07-06T14:53:46.935Z,98130.76
2023-07-06T14:56:13.484Z,98129.90
2023-07-06T14:58:40.116Z,98132.36
2023-07-06T15:01:06.896Z,98133.84
2023-07-06T15:03:33.641Z,98129.19
2023-07-06T15:06:05.610Z,98126.37
2023-07-06T15:08:32.357Z,98124.63
2023-07-06T15:10:59.029Z,98119.90
2023-07-06T15:13:25.667Z,98125.80
2023-07-06T15:15:52.340Z,98127.98
2023-07-06T15:18:19.489Z,98124.29
2023-07-06T15:20:46.123Z,98124.21
2023-07-06T15:23:12.765Z,98130.15
2023-07-06T15:25:39.324Z,98136.94
2023-07-06T15:28:06.866Z,98129.42
2023-07-06T15:30:33.435Z,98131.48
2023-07-06T15:33:02.749Z,98129.13
2023-07-06T15:35:29.737Z,98128.67
2023-07-06T15:38:21.732Z,98128.04
2023-07-06T15:40:50.085Z,98126.55
2023-07-06T15:43:17.228Z,98128.30
2023-07-06T15:45:45.431Z,98133.32
2023-07-06T15:48:12.954Z,98136.05
2023-07-06T15:50:40.428Z,98129.27
2023-07-06T15:53:08.782Z,98126.05
2023-07-06T15:55:35.784Z,98124.35
2023-07-06T15:58:02.484Z,98121.23
2023-07-06T16:00:29.437Z,98117.05
2023-07-06T16:02:56.584Z,98113.34
2023-07-06T16:05:27.727Z,98112.61
2023-07-06T16:07:54.883Z,98110.60
2023-07-06T16:10:21.483Z,98107.89
2023-07-06T16:12:48.040Z,98105.70
2023-07-06T16:15:14.923Z,98107.25
2023-07-06T16:17:43.409Z,98097.16
2023-07-06T16:20:10.642Z,98093.70
2023-07-06T16:22:38.310Z,98096.21
2023-07-06T16:25:05.717Z,98094.09
2023-07-06T16:27:32.376Z,98092.02
2023-07-06T16:29:59.001Z,98097.95
2023-07-06T16:32:25.714Z,98100.23
2023-07-06T16:34:52.420Z,98095.48
2023-07-06T16:37:19.012Z,98092.48
2023-07-06T16:39:46.886Z,98091.95
2023-07-06T16:42:14.128Z,98093.20
2023-07-06T16:44:40.847Z,98097.86
2023-07-06T16:47:07.818Z,98097.10
2023-07-06T16:49:34.442Z,98101.57
2023-07-06T16:52:01.078Z,98102.07
2023-07-06T16:54:27.748Z,98105.04
2023-07-06T16:56:54.381Z,98112.71
2023-07-06T16:59:21.168Z,98109.94
2023-07-06T17:01:48.773Z,98109.05
2023-07-06T17:04:15.473Z,98111.34
2023-07-06T17:06:42.261Z,98114.48
2023-07-06T17:09:08.849Z,98115.35
2023-07-06T17:11:35.848Z,98115.77
2023-07-06T17:14:03.222Z,98120.34
2023-07-06T17:16:29.931Z,98123.09
2023-07-06T17:18:56.499Z,98123.15
2023-07-06T17:21:24.418Z,98124.44
2023-07-06T17:23:51.585Z,98125.09
2023-07-06T17:26:23.492Z,98112.69
2023-07-06T17:28:52.096Z,98126.11
2023-07-06T17:31:20.557Z,98125.02
2023-07-06T17:33:50.333Z,98120.21
2023-07-06T17:36:16.892Z,98121.38
2023-07-06T17:38:43.510Z,98119.55
2023-07-06T17:41:13.287Z,98119.85
2023-07-06T17:43:40.317Z,98126.13
2023-07-06T17:46:08.144Z,98129.75
2023-07-06T17:48:37.751Z,98133.84
2023-07-06T17:51:06.559Z,98136.36
2023-07-06T17:53:34.428Z,98137.54
2023-07-06T17:56:02.005Z,98139.21
2023-07-06T17:58:28.757Z,98138.83
2023-07-06T18:00:55.656Z,98134.48
2023-07-06T18:03:23.650Z,98137.58
2023-07-06T18:05:51.204Z,98138.20
2023-07-06T18:08:18.675Z,98141.94
2023-07-06T18:10:46.566Z,98138.90
2023-07-06T18:13:13.164Z,98137.10
2023-07-06T18:15:40.253Z,98141.85
2023-07-06T18:18:06.926Z,98142.40
2023-07-06T18:20:33.645Z,98148.58
2023-07-06T18:23:00.694Z,98154.02
2023-07-06T18:25:27.866Z,98154.64
2023-07-06T18:27:54.606Z,98155.30
2023-07-06T18:30:21.721Z,98154.16
2023-07-06T18:32:48.815Z,98151.36
2023-07-06T18:35:15.826Z,98149.92
2023-07-06T18:37:42.419Z,98150.48
2023-07-06T18:40:09.741Z,98152.90
2023-07-06T18:42:36.344Z,98150.52
2023-07-06T18:45:08.243Z,98156.05
2023-07-06T18:47:36.684Z,98157.47
2023-07-06T18:50:05.340Z,98155.97
2023-07-06T18:52:32.240Z,98156.63
2023-07-06T18:54:58.861Z,98161.60
2023-07-06T18:57:26.525Z,98165.75
2023-07-06T18:59:56.638Z,98173.09
2023-07-06T19:02:23.502Z,98178.00
2023-07-06T19:04:50.185Z,98184.85
2023-07-06T19:07:16.877Z,98184.67
2023-07-06T19:09:48.480Z,98187.88
2023-07-06T19:12:16.400Z,98188.44
2023-07-06T19:14:43.825Z,98192.61
2023-07-06T19:17:11.050Z,98202.26
2023-07-06T19:19:37.713Z,98205.08
2023-07-06T19:22:05.173Z,98209.14
2023-07-06T19:24:31.941Z,98210.41
2023-07-06T19:26:59.664Z,98213.85
2023-07-06T19:29:26.653Z,98210.30
2023-07-06T19:32:00.620Z,98210.27
2023-07-06T19:34:34.437Z,98215.73
2023-07-06T19:37:02.982Z,98222.04
2023-07-06T19:39:29.824Z,98224.73
2023-07-06T19:41:56.400Z,98223.80
2023-07-06T19:44:23.035Z,98225.67
2023-07-06T19:46:49.672Z,98227.67
2023-07-06T19:49:16.367Z,98233.20
2023-07-06T19:51:43.014Z,98234.58
2023-07-06T19:54:09.589Z,98237.81
2023-07-06T19:56:36.336Z,98236.75
2023-07-06T19:59:05.394Z,98235.02
2023-07-06T20:01:32.344Z,98239.69
2023-07-06T20:03:59.066Z,98237.13
2023-07-06T20:06:25.750Z,98236.55
2023-07-06T20:08:52.844Z,98232.81
2023-07-06T20:11:19.491Z,98230.59
2023-07-06T20:13:46.077Z,98229.68
2023-07-06T20:16:13.125Z,98230.96
2023-07-06T20:18:39.837Z,98231.54
2023-07-06T20:21:06.383Z,98240.27
2023-07-06T20:23:32.991Z,98239.92
2023-07-06T20:25:59.617Z,98240.02
2023-07-06T20:28:27.185Z,98243.44
2023-07-06T20:30:53.743Z,98247.19
2023-07-06T20:33:21.725Z,98248.63
2023-07-06T20:35:48.748Z,98252.46
2023-07-06T20:38:17.809Z,98254.41
2023-07-06T20:40:44.432Z,98257.48
2023-07-06T20:43:11.518Z,98259.52
2023-07-06T20:45:38.110Z,98257.89
2023-07-06T20:48:05.165Z,98259.60
2023-07-06T20:50:31.927Z,98258.23
2023-07-06T20:52:58.965Z,98264.11
2023-07-06T20:55:30.727Z,98263.33
2023-07-06T20:57:57.948Z,98261.13
2023-07-06T21:00:24.571Z,98260.27
2023-07-06T21:02:51.249Z,98267.08
2023-07-06T21:05:17.858Z,98268.96
2023-07-06T21:07:44.419Z,98267.09
2023-07-06T21:10:11.015Z,98266.02
2023-07-06T21:12:37.659Z,98269.48
2023-07-06T21:15:04.835Z,98271.73
2023-07-06T21:17:31.518Z,98276.96
2023-07-06T21:19:58.456Z,98276.25
2023-07-06T21:22:25.071Z,98279.95
2023-07-06T21:24:51.884Z,98283.17
2023-07-06T21:27:18.431Z,98286.39
2023-07-06T21:29:45.021Z,98287.79
2023-07-06T21:32:11.707Z,98292.05
2023-07-06T21:34:38.532Z,98290.21
2023-07-06T21:37:05.230Z,98292.16
2023-07-06T21:39:31.948Z,98293.79
2023-07-06T21:42:01.368Z,98293.94
2023-07-06T21:44:27.979Z,98297.66
2023-07-06T21:46:54.596Z,98294.18
2023-07-06T21:49:21.285Z,98294.65
2023-07-06T21:51:49.734Z,98292.90
2023-07-06T21:54:16.425Z,98297.72
2023-07-06T21:56:43.010Z,98294.98
2023-07-06T21:59:09.534Z,98297.63
2023-07-06T22:01:36.976Z,98299.47
2023-07-06T22:04:04.476Z,98295.69
2023-07-06T22:06:32.140Z,98299.02
2023-07-06T22:08:58.693Z,98298.77
2023-07-06T22:11:30.998Z,98296.63
2023-07-06T22:13:57.830Z,98298.33
2023-07-06T22:16:24.604Z,98297.82
2023-07-06T22:18:51.662Z,98293.27
2023-07-06T22:21:19.288Z,98293.16
2023-07-06T22:23:46.425Z,98292.75
2023-07-06T22:26:13.614Z,98291.44
2023-07-06T22:28:40.590Z,98291.61
2023-07-06T22:31:09.995Z,98292.66
2023-07-06T22:33:38.012Z,98291.20
2023-07-06T22:36:10.310Z,98292.20
2023-07-06T22:38:41.460Z,98289.57
2023-07-06T22:41:09.104Z,98291.13
2023-07-06T22:43:36.573Z,98294.28
2023-07-06T22:46:03.225Z,98292.48
2023-07-06T22:48:30.010Z,98292.95
2023-07-06T22:51:00.964Z,98291.66
2023-07-06T22:53:30.823Z,98291.66
2023-07-06T22:55:58.450Z,98289.89
2023-07-06T22:58:25.011Z,98292.38
2023-07-06T23:00:51.568Z,98290.27
2023-07-06T23:03:19.447Z,98291.08
2023-07-06T23:05:46.307Z,98293.39
2023-07-06T23:08:14.908Z,98291.06
2023-07-06T23:10:44.560Z,98291.45
2023-07-06T23:13:11.677Z,98294.05
2023-07-06T23:15:38.263Z,98294.59
2023-07-06T23:18:05.031Z,98292.22
2023-07-06T23:20:33.222Z,98291.33
2023-07-06T23:23:00.579Z,98294.30
2023-07-06T23:25:33.047Z,98291.70
2023-07-06T23:28:08.516Z,98290.02
2023-07-06T23:30:37.508Z,98290.70
2023-07-06T23:33:09.230Z,98292.84
2023-07-06T23:35:42.848Z,98297.86
2023-07-06T23:38:12.435Z,98295.73
2023-07-06T23:40:40.239Z,98289.61
2023-07-06T23:43:06.933Z,98292.70
2023-07-06T23:45:33.523Z,98295.48
2023-07-06T23:48:01.161Z,98297.80
2023-07-06T23:50:28.001Z,98297.45
2023-07-06T23:52:54.596Z,98294.66
2023-07-06T23:55:21.300Z,98290.94
2023-07-06T23:57:47.934Z,98289.80
